Amendola, Amendola Airport (LIBA)

NameAmendola Airport
CityAmendola
CountryItaly
ICAOLIBA
IATA
Altitude56 m
CoordinatesGoogle Map
Live Air TrafficLiveATC.net
METARLIBA 151155Z 08010KT 9999 FEW030 SCT060 22/16 Q1017 RMK BKN BKN100 VIS MIN 9999 WIND THR11 09013KT WIND THR29 /////KT BLU
2018-10-15 11:55:00 Wind: East-Northeast (80°) 5.14 m/s - Visibility: > 10000 m - Temperature: 22 °C - Dew point: 16 °C - Humidity: 68.9% - Pressure: 1017 hPa

Sorry, no flights used the airport in this database.